createdAt,value
2019-03-12T00:00:13.927Z,99014.20
2019-03-12T00:02:40.495Z,99014.08
2019-03-12T00:05:07.095Z,99011.84
2019-03-12T00:07:33.662Z,99016.06
2019-03-12T00:10:00.420Z,99012.56
2019-03-12T00:12:27.015Z,99019.39
2019-03-12T00:14:53.622Z,99023.20
2019-03-12T00:17:20.209Z,99012.67
2019-03-12T00:19:46.804Z,99013.39
2019-03-12T00:22:13.382Z,99011.23
2019-03-12T00:24:39.984Z,99008.05
2019-03-12T00:27:06.554Z,99011.47
2019-03-12T00:29:33.138Z,99007.96
2019-03-12T00:31:59.710Z,99017.00
2019-03-12T00:34:26.288Z,99014.39
2019-03-12T00:36:52.860Z,99014.47
2019-03-12T00:39:19.448Z,99024.44
2019-03-12T00:41:46.013Z,99021.83
2019-03-12T00:44:12.592Z,99022.66
2019-03-12T00:46:39.287Z,99020.53
2019-03-12T00:49:05.857Z,99017.92
2019-03-12T00:51:32.437Z,99020.45
2019-03-12T00:53:59.011Z,99014.34
2019-03-12T00:56:25.579Z,99017.31
2019-03-12T00:58:52.162Z,99009.50
2019-03-12T01:01:18.732Z,99017.31
2019-03-12T01:03:45.299Z,99023.38
2019-03-12T01:06:11.882Z,99023.38
2019-03-12T01:08:38.458Z,99029.93
2019-03-12T01:11:05.036Z,99034.33
2019-03-12T01:13:31.609Z,99040.06
2019-03-12T01:15:58.187Z,99047.87
2019-03-12T01:18:24.757Z,99047.06
2019-03-12T01:20:51.334Z,99039.34
2019-03-12T01:23:17.903Z,99051.91
2019-03-12T01:25:44.491Z,99048.91
2019-03-12T01:28:11.061Z,99048.05
2019-03-12T01:30:37.632Z,99050.66
2019-03-12T01:33:04.204Z,99058.87
2019-03-12T01:35:30.790Z,99060.57
2019-03-12T01:37:57.359Z,99060.57
2019-03-12T01:40:23.938Z,99063.17
2019-03-12T01:42:52.572Z,99064.48
2019-03-12T01:45:18.799Z,99064.08
2019-03-12T01:47:45.370Z,99069.69
2019-03-12T01:50:11.941Z,99072.30
2019-03-12T01:52:38.541Z,99075.30
2019-03-12T01:55:05.116Z,99081.77
2019-03-12T01:57:31.735Z,99083.92
2019-03-12T01:59:58.292Z,99088.23
2019-03-12T02:02:24.907Z,99086.00
2019-03-12T02:04:51.505Z,99094.22
2019-03-12T02:07:18.108Z,99095.08
2019-03-12T02:09:44.690Z,99092.47
2019-03-12T02:12:11.303Z,99103.29
2019-03-12T02:14:37.872Z,99094.58
2019-03-12T02:17:04.480Z,99094.54
2019-03-12T02:19:31.050Z,99098.36
2019-03-12T02:21:57.645Z,99104.38
2019-03-12T02:24:24.222Z,99096.52
2019-03-12T02:26:50.834Z,99111.13
2019-03-12T02:29:17.395Z,99108.48
2019-03-12T02:31:43.981Z,99113.61
2019-03-12T02:34:10.557Z,99117.52
2019-03-12T02:36:37.154Z,99114.42
2019-03-12T02:39:03.770Z,99123.94
2019-03-12T02:41:30.440Z,99122.23
2019-03-12T02:43:57.003Z,99125.69
2019-03-12T02:46:23.630Z,99126.18
2019-03-12T02:48:50.207Z,99124.92
2019-03-12T02:51:16.819Z,99136.28
2019-03-12T02:53:43.390Z,99135.55
2019-03-12T02:56:09.995Z,99139.53
2019-03-12T02:58:36.603Z,99140.88
2019-03-12T03:01:03.194Z,99137.88
2019-03-12T03:03:29.896Z,99147.44
2019-03-12T03:05:56.510Z,99158.34
2019-03-12T03:08:23.143Z,99167.01
2019-03-12T03:10:49.728Z,99172.26
2019-03-12T03:13:16.367Z,99177.50
2019-03-12T03:15:42.941Z,99177.95
2019-03-12T03:18:09.514Z,99181.86
2019-03-12T03:20:36.087Z,99185.32
2019-03-12T03:23:02.830Z,99190.53
2019-03-12T03:25:29.444Z,99198.30
2019-03-12T03:27:56.097Z,99197.45
2019-03-12T03:30:22.741Z,99199.64
2019-03-12T03:32:49.373Z,99209.20
2019-03-12T03:35:15.943Z,99207.53
2019-03-12T03:37:42.529Z,99217.05
2019-03-12T03:40:09.114Z,99219.77
2019-03-12T03:42:35.719Z,99218.51
2019-03-12T03:45:02.290Z,99224.13
2019-03-12T03:47:28.875Z,99224.53
2019-03-12T03:49:55.456Z,99227.92
2019-03-12T03:52:22.039Z,99232.16
2019-03-12T03:54:48.612Z,99239.03
2019-03-12T03:57:15.265Z,99244.16
2019-03-12T03:59:41.971Z,99247.54
2019-03-12T04:02:08.587Z,99246.58
2019-03-12T04:04:35.151Z,99247.42
2019-03-12T04:07:01.762Z,99255.16
2019-03-12T04:09:28.399Z,99266.36
2019-03-12T04:11:55.014Z,99264.53
2019-03-12T04:14:21.644Z,99276.21
2019-03-12T04:16:48.237Z,99281.38
2019-03-12T04:19:14.811Z,99292.66
2019-03-12T04:21:41.402Z,99291.48
2019-03-12T04:24:07.993Z,99294.20
2019-03-12T04:26:34.611Z,99296.47
2019-03-12T04:29:01.174Z,99299.64
2019-03-12T04:31:27.776Z,99307.52
2019-03-12T04:33:54.442Z,99312.33
2019-03-12T04:36:21.055Z,99319.36
2019-03-12T04:38:47.631Z,99325.87
2019-03-12T04:41:14.197Z,99326.31
2019-03-12T04:43:40.811Z,99324.61
2019-03-12T04:46:07.432Z,99330.26
2019-03-12T04:48:34.016Z,99339.38
2019-03-12T04:51:00.588Z,99341.94
2019-03-12T04:53:27.168Z,99347.11
2019-03-12T04:55:53.736Z,99344.47
2019-03-12T04:58:20.304Z,99347.94
2019-03-12T05:00:46.897Z,99346.63
2019-03-12T05:03:13.459Z,99344.40
2019-03-12T05:05:40.042Z,99343.09
2019-03-12T05:08:06.613Z,99356.05
2019-03-12T05:10:33.190Z,99364.72
2019-03-12T05:12:59.777Z,99358.65
2019-03-12T05:15:26.351Z,99370.30
2019-03-12T05:17:52.916Z,99371.16
2019-03-12T05:20:19.498Z,99374.58
2019-03-12T05:22:46.096Z,99374.99
2019-03-12T05:25:12.663Z,99378.41
2019-03-12T05:27:39.264Z,99376.22
2019-03-12T05:30:05.828Z,99394.38
2019-03-12T05:32:32.447Z,99390.47
2019-03-12T05:34:59.159Z,99394.72
2019-03-12T05:37:25.763Z,99396.77
2019-03-12T05:39:52.397Z,99401.45
2019-03-12T05:42:19.031Z,99405.29
2019-03-12T05:44:45.602Z,99409.13
2019-03-12T05:47:12.206Z,99412.95
2019-03-12T05:49:38.787Z,99415.86
2019-03-12T05:52:05.482Z,99416.23
2019-03-12T05:54:32.054Z,99417.83
2019-03-12T05:56:58.699Z,99421.59
2019-03-12T05:59:25.301Z,99423.19
2019-03-12T06:01:51.921Z,99431.30
2019-03-12T06:04:18.483Z,99422.95
2019-03-12T06:06:45.055Z,99427.24
2019-03-12T06:09:11.639Z,99422.51
2019-03-12T06:11:38.214Z,99429.40
2019-03-12T06:14:04.789Z,99441.09
2019-03-12T06:16:31.385Z,99442.41
2019-03-12T06:18:57.966Z,99449.77
2019-03-12T06:21:24.537Z,99447.98
2019-03-12T06:23:51.191Z,99453.98
2019-03-12T06:26:17.766Z,99446.16
2019-03-12T06:28:44.338Z,99453.57
2019-03-12T06:31:10.912Z,99462.25
2019-03-12T06:33:37.487Z,99464.45
2019-03-12T06:36:04.056Z,99473.53
2019-03-12T06:38:30.628Z,99476.52
2019-03-12T06:40:57.200Z,99476.84
2019-03-12T06:43:23.764Z,99484.97
2019-03-12T06:45:50.338Z,99501.31
2019-03-12T06:48:16.946Z,99499.04
2019-03-12T06:50:43.591Z,99508.06
2019-03-12T06:53:10.202Z,99508.88
2019-03-12T06:55:36.783Z,99511.41
2019-03-12T06:58:03.347Z,99519.64
2019-03-12T07:00:30.040Z,99522.98
2019-03-12T07:02:56.608Z,99526.67
2019-03-12T07:05:23.188Z,99527.33
2019-03-12T07:07:49.761Z,99533.12
2019-03-12T07:10:16.336Z,99527.98
2019-03-12T07:12:42.899Z,99538.30
2019-03-12T07:15:09.478Z,99530.59
2019-03-12T07:17:36.052Z,99528.75
2019-03-12T07:20:02.717Z,99539.61
2019-03-12T07:22:29.292Z,99537.48
2019-03-12T07:24:55.865Z,99544.55
2019-03-12T07:27:22.463Z,99542.95
2019-03-12T07:29:49.026Z,99548.09
2019-03-12T07:32:15.699Z,99552.75
2019-03-12T07:34:42.263Z,99553.84
2019-03-12T07:37:08.869Z,99550.58
2019-03-12T07:39:35.442Z,99557.81
2019-03-12T07:42:02.039Z,99556.75
2019-03-12T07:44:28.608Z,99571.44
2019-03-12T07:46:55.213Z,99573.34
2019-03-12T07:49:21.791Z,99583.35
2019-03-12T07:51:48.378Z,99574.10
2019-03-12T07:54:14.950Z,99572.25
2019-03-12T07:56:41.543Z,99568.69
2019-03-12T07:59:09.179Z,99576.76
2019-03-12T08:01:35.992Z,99580.85
2019-03-12T08:04:02.598Z,99588.73
2019-03-12T08:06:29.176Z,99580.29
2019-03-12T08:08:55.771Z,99581.09
2019-03-12T08:11:22.347Z,99585.53
2019-03-12T08:13:48.936Z,99596.95
2019-03-12T08:16:15.509Z,99594.39
2019-03-12T08:18:42.117Z,99608.78
2019-03-12T08:21:21.446Z,99613.51
2019-03-12T08:23:36.992Z,99620.45
2019-03-12T08:26:03.571Z,99623.07
2019-03-12T08:28:30.147Z,99619.09
2019-03-12T08:30:56.712Z,99621.72
2019-03-12T08:33:23.275Z,99628.20
2019-03-12T08:35:49.852Z,99623.66
2019-03-12T08:38:16.429Z,99615.75
2019-03-12T08:40:51.904Z,99620.43
2019-03-12T08:43:11.296Z,99620.38
2019-03-12T08:45:37.923Z,99622.55
2019-03-12T08:48:04.490Z,99630.83
2019-03-12T08:50:31.104Z,99633.80
2019-03-12T08:52:57.770Z,99634.70
2019-03-12T08:55:24.342Z,99628.45
2019-03-12T08:57:50.959Z,99627.82
2019-03-12T09:00:17.540Z,99619.90
2019-03-12T09:02:44.136Z,99622.92
2019-03-12T09:05:10.711Z,99620.14
2019-03-12T09:07:37.330Z,99619.62
2019-03-12T09:10:03.893Z,99612.59
2019-03-12T09:12:30.501Z,99617.98
2019-03-12T09:14:57.259Z,99614.88
2019-03-12T09:17:23.830Z,99614.70
2019-03-12T09:19:50.401Z,99627.49
2019-03-12T09:22:17.072Z,99617.84
2019-03-12T09:24:43.645Z,99625.11
2019-03-12T09:27:10.220Z,99624.31
2019-03-12T09:29:36.807Z,99626.48
2019-03-12T09:32:03.379Z,99624.77
2019-03-12T09:34:30.000Z,99628.23
2019-03-12T09:36:56.618Z,99623.37
2019-03-12T09:39:23.237Z,99635.73
2019-03-12T09:41:49.810Z,99637.54
2019-03-12T09:44:16.406Z,99627.73
2019-03-12T09:46:42.971Z,99633.09
2019-03-12T09:49:10.853Z,99626.70
2019-03-12T09:51:37.485Z,99627.16
2019-03-12T09:54:04.058Z,99628.05
2019-03-12T09:56:30.720Z,99617.24
2019-03-12T09:58:57.288Z,99616.28
2019-03-12T10:01:25.685Z,99620.87
2019-03-12T10:03:52.380Z,99628.78
2019-03-12T10:06:18.979Z,99619.73
2019-03-12T10:08:45.545Z,99630.92
2019-03-12T10:11:12.126Z,99621.64
2019-03-12T10:13:38.705Z,99635.58
2019-03-12T10:16:05.276Z,99640.24
2019-03-12T10:18:31.947Z,99630.06
2019-03-12T10:20:58.502Z,99631.95
2019-03-12T10:23:25.084Z,99630.35
2019-03-12T10:25:51.669Z,99626.22
2019-03-12T10:28:18.252Z,99626.51
2019-03-12T10:30:44.829Z,99616.76
2019-03-12T10:33:11.396Z,99603.56
2019-03-12T10:35:37.969Z,99597.52
2019-03-12T10:38:04.585Z,99596.98
2019-03-12T10:40:31.163Z,99595.16
2019-03-12T10:42:57.803Z,99591.40
2019-03-12T10:45:24.494Z,99594.84
2019-03-12T10:47:51.080Z,99598.47
2019-03-12T10:50:17.676Z,99602.48
2019-03-12T10:52:44.255Z,99595.23
2019-03-12T10:55:13.542Z,99602.99
2019-03-12T10:57:39.228Z,99600.69
2019-03-12T11:00:06.092Z,99601.12
2019-03-12T11:02:32.664Z,99604.12
2019-03-12T11:04:59.267Z,99601.91
2019-03-12T11:07:26.009Z,99603.83
2019-03-12T11:09:52.619Z,99610.41
2019-03-12T11:12:19.189Z,99602.45
2019-03-12T11:14:45.812Z,99600.59
2019-03-12T11:17:12.394Z,99607.58
2019-03-12T11:19:38.998Z,99616.37
2019-03-12T11:22:05.563Z,99605.48
2019-03-12T11:24:32.164Z,99617.31
2019-03-12T11:26:58.911Z,99613.72
2019-03-12T11:29:25.521Z,99626.06
2019-03-12T11:31:52.099Z,99621.47
2019-03-12T11:34:18.687Z,99624.31
2019-03-12T11:36:45.261Z,99630.98
2019-03-12T11:39:11.927Z,99633.77
2019-03-12T11:41:38.653Z,99631.16
2019-03-12T11:44:05.239Z,99628.45
2019-03-12T11:46:41.778Z,99615.13
2019-03-12T11:49:00.261Z,99613.86
2019-03-12T11:51:26.997Z,99626.30
2019-03-12T11:53:53.616Z,99614.66
2019-03-12T11:56:20.178Z,99617.54
2019-03-12T11:58:46.972Z,99609.45
2019-03-12T12:01:13.717Z,99616.16
2019-03-12T12:03:40.351Z,99609.17
2019-03-12T12:06:06.926Z,99607.84
2019-03-12T12:08:33.514Z,99600.83
2019-03-12T12:11:00.271Z,99603.47
2019-03-12T12:13:26.854Z,99599.53
2019-03-12T12:15:54.480Z,99599.23
2019-03-12T12:18:21.052Z,99603.86
2019-03-12T12:20:47.656Z,99605.72
2019-03-12T12:23:14.229Z,99608.23
2019-03-12T12:25:40.816Z,99608.78
2019-03-12T12:28:07.389Z,99606.15
2019-03-12T12:30:33.997Z,99612.02
2019-03-12T12:33:00.571Z,99606.25
2019-03-12T12:35:27.177Z,99600.77
2019-03-12T12:37:53.744Z,99601.59
2019-03-12T12:40:20.343Z,99598.58
2019-03-12T12:42:46.917Z,99601.48
2019-03-12T12:45:13.519Z,99606.10
2019-03-12T12:47:40.092Z,99599.89
2019-03-12T12:50:06.701Z,99599.23
2019-03-12T12:52:33.324Z,99600.69
2019-03-12T12:54:59.956Z,99597.94
2019-03-12T12:57:26.532Z,99601.02
2019-03-12T12:59:53.142Z,99601.51
2019-03-12T13:02:19.722Z,99602.14
2019-03-12T13:04:46.316Z,99595.51
2019-03-12T13:07:12.894Z,99601.67
2019-03-12T13:09:39.530Z,99605.62
2019-03-12T13:12:06.100Z,99613.91
2019-03-12T13:14:41.346Z,99611.58
2019-03-12T13:17:01.017Z,99603.04
2019-03-12T13:19:27.625Z,99607.52
2019-03-12T13:21:54.225Z,99605.00
2019-03-12T13:24:20.803Z,99606.76
2019-03-12T13:26:47.370Z,99612.81
2019-03-12T13:29:13.950Z,99601.98
2019-03-12T13:31:40.534Z,99608.31
2019-03-12T13:34:07.114Z,99599.00
2019-03-12T13:36:33.699Z,99598.39
2019-03-12T13:39:00.365Z,99590.30
2019-03-12T13:41:27.017Z,99596.73
2019-03-12T13:43:53.586Z,99595.84
2019-03-12T13:46:20.169Z,99602.49
2019-03-12T13:48:46.841Z,99605.81
2019-03-12T13:51:13.406Z,99597.92
2019-03-12T13:53:39.998Z,99596.13
2019-03-12T13:56:06.657Z,99596.40
2019-03-12T13:58:33.286Z,99592.34
2019-03-12T14:00:59.885Z,99593.83
2019-03-12T14:03:26.554Z,99595.11
2019-03-12T14:05:53.137Z,99597.34
2019-03-12T14:08:19.706Z,99599.38
2019-03-12T14:10:46.283Z,99601.06
2019-03-12T14:13:12.847Z,99605.64
2019-03-12T14:15:39.447Z,99600.92
2019-03-12T14:18:06.015Z,99591.53
2019-03-12T14:20:32.612Z,99598.12
2019-03-12T14:22:59.199Z,99592.88
2019-03-12T14:25:25.789Z,99595.03
2019-03-12T14:27:52.374Z,99601.65
2019-03-12T14:30:19.011Z,99592.34
2019-03-12T14:32:45.588Z,99596.64
2019-03-12T14:35:12.202Z,99604.16
2019-03-12T14:37:38.776Z,99589.95
2019-03-12T14:40:05.364Z,99587.58
2019-03-12T14:42:31.936Z,99579.80
2019-03-12T14:44:58.529Z,99590.58
2019-03-12T14:47:25.175Z,99586.80
2019-03-12T14:49:51.748Z,99580.59
2019-03-12T14:52:18.319Z,99583.48
2019-03-12T14:54:44.904Z,99584.58
2019-03-12T14:57:11.475Z,99580.88
2019-03-12T14:59:38.051Z,99583.67
2019-03-12T15:02:04.612Z,99586.92
2019-03-12T15:04:31.190Z,99580.80
2019-03-12T15:06:57.770Z,99577.13
2019-03-12T15:09:24.351Z,99580.80
2019-03-12T15:11:51.077Z,99579.34
2019-03-12T15:14:17.646Z,99577.05
2019-03-12T15:16:44.219Z,99566.45
2019-03-12T15:19:10.798Z,99568.95
2019-03-12T15:21:37.381Z,99577.44
2019-03-12T15:24:03.976Z,99567.90
2019-03-12T15:26:30.577Z,99572.84
2019-03-12T15:28:57.159Z,99565.64
2019-03-12T15:31:23.771Z,99575.08
2019-03-12T15:33:50.345Z,99571.92
2019-03-12T15:36:16.947Z,99569.73
2019-03-12T15:38:43.582Z,99575.41
2019-03-12T15:41:10.174Z,99568.38
2019-03-12T15:43:36.927Z,99575.06
2019-03-12T15:46:03.541Z,99575.81
2019-03-12T15:48:30.125Z,99576.11
2019-03-12T15:50:56.736Z,99574.34
2019-03-12T15:53:23.303Z,99572.75
2019-03-12T15:55:49.899Z,99564.20
2019-03-12T15:58:16.478Z,99563.80
2019-03-12T16:00:43.092Z,99571.04
2019-03-12T16:03:09.675Z,99567.29
2019-03-12T16:05:36.254Z,99561.50
2019-03-12T16:08:02.835Z,99563.12
2019-03-12T16:10:29.402Z,99572.05
2019-03-12T16:12:55.973Z,99568.99
2019-03-12T16:15:22.560Z,99567.09
2019-03-12T16:17:49.135Z,99563.83
2019-03-12T16:20:15.720Z,99556.40
2019-03-12T16:22:42.314Z,99556.77
2019-03-12T16:25:08.885Z,99552.77
2019-03-12T16:27:35.626Z,99551.61
2019-03-12T16:30:02.198Z,99543.03
2019-03-12T16:32:28.813Z,99542.27
2019-03-12T16:34:55.385Z,99551.41
2019-03-12T16:37:21.989Z,99546.01
2019-03-12T16:39:48.559Z,99545.80
2019-03-12T16:42:15.169Z,99551.66
2019-03-12T16:44:41.739Z,99543.52
2019-03-12T16:47:08.347Z,99542.66
2019-03-12T16:49:34.926Z,99534.39
2019-03-12T16:52:01.548Z,99530.11
2019-03-12T16:54:28.170Z,99537.25
2019-03-12T16:56:55.051Z,99537.08
2019-03-12T16:59:28.021Z,99538.17
2019-03-12T17:02:13.130Z,99538.05
2019-03-12T17:04:39.705Z,99536.13
2019-03-12T17:07:06.301Z,99535.78
2019-03-12T17:09:32.874Z,99538.52
2019-03-12T17:11:59.470Z,99539.44
2019-03-12T17:14:38.282Z,99534.28
2019-03-12T17:16:55.402Z,99536.05
2019-03-12T17:19:21.988Z,99539.04
2019-03-12T17:21:48.602Z,99536.97
2019-03-12T17:24:15.175Z,99542.27
2019-03-12T17:26:41.775Z,99538.05
2019-03-12T17:29:08.358Z,99533.89
2019-03-12T17:31:34.964Z,99535.02
2019-03-12T17:34:01.539Z,99538.73
2019-03-12T17:36:28.612Z,99532.80
2019-03-12T17:38:55.424Z,99540.92
2019-03-12T17:41:22.027Z,99536.31
2019-03-12T17:43:48.606Z,99536.93
2019-03-12T17:46:15.258Z,99534.86
2019-03-12T17:48:41.844Z,99539.41
2019-03-12T17:51:08.419Z,99543.51
2019-03-12T17:53:35.001Z,99538.03
2019-03-12T17:56:01.578Z,99539.19
2019-03-12T17:58:28.162Z,99537.20
2019-03-12T18:00:54.731Z,99529.53
2019-03-12T18:03:21.312Z,99531.41
2019-03-12T18:05:47.888Z,99533.22
2019-03-12T18:08:14.459Z,99533.33
2019-03-12T18:10:41.044Z,99528.20
2019-03-12T18:13:07.618Z,99528.70
2019-03-12T18:15:34.195Z,99526.63
2019-03-12T18:18:00.769Z,99530.66
2019-03-12T18:20:27.341Z,99520.75
2019-03-12T18:22:53.919Z,99521.81
2019-03-12T18:25:20.488Z,99520.80
2019-03-12T18:27:47.113Z,99516.23
2019-03-12T18:30:13.680Z,99518.17
2019-03-12T18:32:40.299Z,99522.83
2019-03-12T18:35:06.868Z,99520.10
2019-03-12T18:37:33.460Z,99512.05
2019-03-12T18:40:00.029Z,99516.25
2019-03-12T18:42:26.634Z,99513.39
2019-03-12T18:44:53.213Z,99508.80
2019-03-12T18:47:19.831Z,99508.58
2019-03-12T18:49:46.428Z,99507.87
2019-03-12T18:52:13.085Z,99505.85
2019-03-12T18:54:39.652Z,99506.89
2019-03-12T18:57:06.273Z,99507.53
2019-03-12T18:59:32.842Z,99505.51
2019-03-12T19:01:59.407Z,99503.52
2019-03-12T19:04:25.991Z,99499.73
2019-03-12T19:06:52.567Z,99508.98
2019-03-12T19:09:19.143Z,99510.05
2019-03-12T19:11:48.489Z,99509.33
2019-03-12T19:14:14.021Z,99512.04
2019-03-12T19:16:40.592Z,99512.17
2019-03-12T19:19:07.161Z,99510.18
2019-03-12T19:21:33.731Z,99511.98
2019-03-12T19:24:00.312Z,99506.89
2019-03-12T19:26:26.885Z,99504.81
2019-03-12T19:28:53.454Z,99505.52
2019-03-12T19:33:56.494Z,99503.98
2019-03-12T19:36:23.072Z,99496.31
2019-03-12T19:38:49.655Z,99500.36
2019-03-12T19:41:16.232Z,99494.41
2019-03-12T19:43:43.422Z,99498.08
2019-03-12T19:46:10.676Z,99486.38
2019-03-12T19:48:38.074Z,99492.49
2019-03-12T19:51:04.647Z,99488.70
2019-03-12T19:53:31.228Z,99492.66
2019-03-12T19:55:57.800Z,99494.09
2019-03-12T19:58:24.375Z,99484.63
2019-03-12T20:00:50.943Z,99483.89
2019-03-12T20:03:17.638Z,99487.48
2019-03-12T20:05:44.199Z,99485.85
2019-03-12T20:08:10.829Z,99488.58
2019-03-12T20:10:37.396Z,99485.16
2019-03-12T20:13:04.107Z,99486.91
2019-03-12T20:15:30.688Z,99489.47
2019-03-12T20:17:57.316Z,99483.77
2019-03-12T20:20:23.913Z,99481.98
2019-03-12T20:22:50.470Z,99478.14
2019-03-12T20:25:17.071Z,99479.12
2019-03-12T20:27:45.034Z,99466.16
2019-03-12T20:30:12.005Z,99471.86
2019-03-12T20:32:38.578Z,99465.83
2019-03-12T20:35:05.433Z,99464.56
2019-03-12T20:37:32.134Z,99456.33
2019-03-12T20:39:58.768Z,99450.25
2019-03-12T20:42:25.361Z,99448.95
2019-03-12T20:44:51.930Z,99452.48
2019-03-12T20:47:18.505Z,99448.17
2019-03-12T20:49:45.079Z,99446.95
2019-03-12T20:52:11.673Z,99451.34
2019-03-12T20:54:38.353Z,99442.70
2019-03-12T20:57:04.967Z,99434.97
2019-03-12T20:59:31.573Z,99429.83
2019-03-12T21:01:58.177Z,99426.84
2019-03-12T21:04:24.759Z,99419.06
2019-03-12T21:06:51.414Z,99413.88
2019-03-12T21:09:17.992Z,99423.42
2019-03-12T21:11:44.558Z,99414.70
2019-03-12T21:14:11.145Z,99406.87
2019-03-12T21:16:37.714Z,99401.25
2019-03-12T21:19:04.301Z,99401.25
2019-03-12T21:21:32.940Z,99384.79
2019-03-12T21:24:01.241Z,99386.09
2019-03-12T21:26:27.820Z,99372.64
2019-03-12T21:28:54.446Z,99373.95
2019-03-12T21:31:21.043Z,99374.44
2019-03-12T21:33:47.632Z,99372.73
2019-03-12T21:36:14.201Z,99371.02
2019-03-12T21:38:40.780Z,99362.79
2019-03-12T21:41:07.402Z,99359.33
2019-03-12T21:43:35.020Z,99356.76
2019-03-12T21:46:01.547Z,99351.17
2019-03-12T21:48:28.123Z,99355.94
2019-03-12T21:50:54.700Z,99345.22
2019-03-12T21:53:21.277Z,99347.42
2019-03-12T21:55:47.849Z,99346.61
2019-03-12T21:58:14.413Z,99337.56
2019-03-12T22:00:40.987Z,99334.55
2019-03-12T22:03:07.560Z,99340.66
2019-03-12T22:05:34.134Z,99334.63
2019-03-12T22:08:00.708Z,99331.66
2019-03-12T22:10:27.346Z,99329.46
2019-03-12T22:12:53.966Z,99326.00
2019-03-12T22:15:20.573Z,99320.41
2019-03-12T22:17:47.167Z,99315.69
2019-03-12T22:20:13.777Z,99308.36
2019-03-12T22:22:40.352Z,99303.63
2019-03-12T22:25:06.955Z,99309.74
2019-03-12T22:27:33.534Z,99306.32
2019-03-12T22:30:00.279Z,99299.40
2019-03-12T22:32:27.104Z,99293.38
2019-03-12T22:34:53.718Z,99290.36
2019-03-12T22:37:20.284Z,99279.12
2019-03-12T22:39:46.952Z,99274.84
2019-03-12T22:42:13.590Z,99268.36
2019-03-12T22:44:40.233Z,99274.52
2019-03-12T22:47:06.813Z,99271.09
2019-03-12T22:49:33.389Z,99277.65
2019-03-12T22:51:59.982Z,99268.16
2019-03-12T22:54:26.581Z,99257.82
2019-03-12T22:56:53.151Z,99253.05
2019-03-12T22:59:19.725Z,99255.66
2019-03-12T23:01:46.321Z,99259.16
2019-03-12T23:04:12.949Z,99246.21
2019-03-12T23:06:39.559Z,99242.75
2019-03-12T23:09:06.132Z,99242.80
2019-03-12T23:11:32.708Z,99241.53
2019-03-12T23:13:59.276Z,99231.59
2019-03-12T23:16:25.849Z,99225.13
2019-03-12T23:18:52.416Z,99222.11
2019-03-12T23:21:19.007Z,99223.01
2019-03-12T23:23:45.585Z,99211.73
2019-03-12T23:26:12.201Z,99213.53
2019-03-12T23:28:38.755Z,99212.27
2019-03-12T23:31:05.373Z,99201.44
2019-03-12T23:33:31.943Z,99205.87
2019-03-12T23:35:58.525Z,99199.39
2019-03-12T23:38:25.125Z,99191.22
2019-03-12T23:40:51.737Z,99182.59
2019-03-12T23:43:18.307Z,99180.03
2019-03-12T23:45:45.852Z,99172.26
2019-03-12T23:48:12.433Z,99176.61
2019-03-12T23:50:39.045Z,99176.20
2019-03-12T23:53:05.627Z,99168.88
2019-03-12T23:55:32.205Z,99170.19
2019-03-12T23:57:58.785Z,99164.64
